Time;durP1;ratioP1;P1;durP2;ratioP2;P2;SDS_P1;SDS_P2;PMS_P1;PMS_P2;Temp;Humidity;BMP_temperature;BMP_pressure;BME280_temperature;BME280_humidity;BME280_pressure;Samples;Min_cycle;Max_cycle;Signal;HPM_P1;HPM_P2
2022/02/10 00:03:41;;;;;;;5.50;3.92;;;;;;;7.17;50.44;102534.51;1797191;79;21530;-70
2022/02/10 00:21:23;;;;;;;7.40;4.33;;;;;;;7.11;50.55;102549.06;1788005;79;21530;-71
2022/02/10 00:24:07;;;;;;;6.87;4.90;;;;;;;7.08;50.55;102552.88;1801545;79;21034;-71
2022/02/10 00:34:29;;;;;;;8.98;4.78;;;;;;;6.96;50.73;102550.03;1791071;79;21534;-71
2022/02/10 00:37:09;;;;;;;6.70;5.17;;;;;;;6.93;50.85;102540.89;1795866;79;21498;-70
2022/02/10 00:42:02;;;;;;;5.97;4.33;;;;;;;6.89;51.06;102541.66;1752040;80;21104;-71
2022/02/10 00:44:28;;;;;;;6.72;4.37;;;;;;;6.89;51.18;102545.13;1751874;81;21084;-71
2022/02/10 00:46:55;;;;;;;9.05;4.87;;;;;;;6.91;51.21;102555.52;1748286;81;21524;-71
2022/02/10 00:49:22;;;;;;;6.80;5.05;;;;;;;6.91;51.26;102564.56;1747098;82;21016;-71
2022/02/10 00:51:49;;;;;;;8.70;4.80;;;;;;;6.94;51.28;102564.65;1748354;81;21033;-71
2022/02/10 00:54:24;;;;;;;8.88;4.83;;;;;;;6.96;51.37;102573.31;1747294;81;21094;-71
2022/02/10 00:56:48;;;;;;;6.47;4.60;;;;;;;6.98;51.39;102567.75;1746786;81;21049;-71
2022/02/10 00:59:47;;;;;;;6.60;4.62;;;;;;;7.00;51.50;102564.37;1747829;81;21108;-71
2022/02/10 01:10:33;;;;;;;8.60;4.72;;;;;;;7.11;51.39;102547.77;1748324;81;21017;-72
2022/02/10 01:31:57;;;;;;;6.22;5.00;;;;;;;7.21;51.03;102545.83;1694278;84;21121;-71
2022/02/10 01:34:25;;;;;;;6.67;4.90;;;;;;;7.17;51.04;102546.16;1692340;84;21018;-71
2022/02/10 01:36:52;;;;;;;7.03;5.20;;;;;;;7.16;50.99;102552.61;1695481;84;21010;-70
2022/02/10 01:39:23;;;;;;;8.73;5.35;;;;;;;7.12;51.00;102553.39;1701711;83;21077;-71
2022/02/10 02:03:48;;;;;;;8.15;5.62;;;;;;;7.10;51.31;102547.30;1706933;84;20995;-71
2022/02/10 02:06:22;;;;;;;6.25;4.95;;;;;;;7.10;51.27;102548.59;1706614;84;21014;-72
2022/02/10 02:08:43;;;;;;;6.95;4.85;;;;;;;7.11;51.24;102554.25;1704596;84;21536;-71
2022/02/10 02:11:09;;;;;;;7.45;5.08;;;;;;;7.11;51.24;102558.13;1708024;84;21071;-71
2022/02/10 02:13:36;;;;;;;6.80;4.87;;;;;;;7.12;51.17;102552.09;1694182;84;20978;-72
2022/02/10 02:16:02;;;;;;;7.45;4.70;;;;;;;7.12;51.19;102556.86;1708082;84;21001;-71
2022/02/10 02:18:31;;;;;;;7.35;5.42;;;;;;;7.12;51.07;102555.97;1707753;84;21556;-71
2022/02/10 02:20:58;;;;;;;7.60;5.53;;;;;;;7.11;51.01;102552.50;1708122;82;21038;-70
2022/02/10 02:23:28;;;;;;;8.20;5.10;;;;;;;7.11;50.93;102556.83;1711516;82;21552;-71
2022/02/10 02:26:06;;;;;;;6.03;5.05;;;;;;;7.09;50.87;102542.98;1674335;85;21082;-71
2022/02/10 02:28:28;;;;;;;8.65;5.17;;;;;;;7.07;50.79;102548.11;1672603;85;21051;-71
2022/02/10 02:31:00;;;;;;;8.25;4.87;;;;;;;7.04;50.76;102548.47;1690915;83;21089;-71
2022/02/10 03:06:15;;;;;;;8.30;5.67;;;;;;;6.76;50.91;102556.48;1684334;84;21056;-71
2022/02/10 03:08:38;;;;;;;7.12;5.20;;;;;;;6.75;50.90;102557.31;1686962;84;21501;-71
2022/02/10 03:11:04;;;;;;;6.50;4.70;;;;;;;6.73;50.93;102552.52;1682098;85;21034;-70
2022/02/10 03:13:32;;;;;;;7.75;5.22;;;;;;;6.74;50.90;102551.70;1687358;85;21049;-71
2022/02/10 03:21:08;;;;;;;6.87;5.33;;;;;;;6.71;50.84;102549.03;1798696;79;21003;-72
2022/02/10 04:02:18;;;;;;;8.70;5.25;;;;;;;6.47;51.43;102514.00;1705034;83;21602;-71
2022/02/10 04:12:31;;;;;;;6.58;4.92;;;;;;;6.45;51.51;102510.52;1663672;85;21113;-70
2022/02/10 04:14:42;;;;;;;9.13;5.67;;;;;;;6.45;51.53;102513.09;1709370;82;21465;-72
2022/02/10 04:22:12;;;;;;;7.22;5.72;;;;;;;6.42;51.46;102527.67;1628416;88;21626;-71
2022/02/10 04:30:22;;;;;;;5.90;5.30;;;;;;;6.37;51.74;102532.73;1510456;95;21130;-71
2022/02/10 04:37:28;;;;;;;10.08;5.70;;;;;;;6.36;51.81;102531.00;1500398;95;21635;-71
2022/02/10 04:53:16;;;;;;;12.15;6.25;;;;;;;6.36;52.02;102533.59;1518253;94;21080;-72
2022/02/10 05:14:57;;;;;;;7.10;5.35;;;;;;;6.43;52.20;102553.97;1588936;88;21161;-71
2022/02/10 05:34:58;;;;;;;12.33;6.60;;;;;;;6.61;52.27;102548.37;1614701;88;21097;-70
2022/02/10 05:37:27;;;;;;;9.70;5.97;;;;;;;6.63;52.31;102545.40;1646632;86;21565;-70
2022/02/10 05:39:53;;;;;;;8.33;6.03;;;;;;;6.65;52.40;102559.23;1642926;86;21528;-70
2022/02/10 05:45:13;;;;;;;8.00;6.35;;;;;;;6.72;52.59;102555.97;1622309;87;21591;-71
2022/02/10 05:47:59;;;;;;;11.08;6.90;;;;;;;6.75;52.59;102556.02;1613500;87;21025;-70
2022/02/10 06:52:57;;;;;;;12.85;7.40;;;;;;;7.90;52.08;102593.80;1599747;89;21141;-71
2022/02/10 07:03:38;;;;;;;10.85;6.90;;;;;;;8.05;51.50;102583.72;1601086;89;21098;-71
2022/02/10 07:06:06;;;;;;;11.12;7.33;;;;;;;8.07;51.43;102571.66;1581136;89;21085;-71
2022/02/10 07:51:57;;;;;;;11.28;6.72;;;;;;;9.05;50.68;102539.85;1656360;86;21065;-69
2022/02/10 09:23:08;;;;;;;6.75;5.08;;;;;;;10.79;47.83;102563.23;1800061;79;21023;-69
2022/02/10 09:53:19;;;;;;;7.22;5.87;;;;;;;11.56;46.64;102532.27;1787713;79;21042;-69
2022/02/10 10:02:53;;;;;;;8.30;5.45;;;;;;;11.77;46.66;102515.41;1794736;79;21002;-69
2022/02/10 10:05:37;;;;;;;6.85;5.53;;;;;;;11.84;46.58;102514.56;1777918;79;21069;-70
2022/02/10 10:11:03;;;;;;;7.87;6.22;;;;;;;12.00;46.96;102510.20;1792365;79;21065;-71
2022/02/10 10:13:36;;;;;;;9.98;6.58;;;;;;;12.10;46.82;102510.64;1738789;80;22314;-71
2022/02/10 10:24:17;;;;;;;10.10;6.87;;;;;;;12.48;46.32;102500.17;1681387;85;21054;-70
2022/02/10 10:26:46;;;;;;;29.20;20.80;;;;;;;12.57;46.33;102503.62;1685044;83;21006;-70
2022/02/10 10:48:21;;;;;;;14.30;10.95;;;;;;;13.05;45.66;102465.62;1696689;83;21045;-70
2022/02/10 10:52:06;;;;;;;8.10;6.62;;;;;;;13.22;45.73;102458.12;1702727;83;21125;-71
2022/02/10 10:57:13;;;;;;;8.53;5.60;;;;;;;13.38;45.05;102463.68;1794597;79;20999;-71
2022/02/10 10:59:52;;;;;;;6.95;5.53;;;;;;;13.41;44.92;102461.06;1730632;81;21084;-70
2022/02/10 11:42:19;;;;;;;7.35;5.85;;;;;;;12.22;49.02;102428.42;1620463;87;21133;-71
2022/02/10 12:34:47;;;;;;;8.25;5.45;;;;;;;12.37;49.57;102410.13;1445180;98;21708;-70
2022/02/10 13:32:26;;;;;;;5.37;4.03;;;;;;;13.66;45.17;102428.63;1562516;91;21145;-69
2022/02/10 14:15:52;;;;;;;8.65;4.97;;;;;;;13.51;45.90;102420.89;1500449;93;21104;-71
2022/02/10 14:26:04;;;;;;;6.83;4.50;;;;;;;13.54;45.64;102403.42;1508181;92;21115;-70
2022/02/10 14:28:28;;;;;;;9.60;4.42;;;;;;;13.51;45.53;102411.73;1511758;93;21094;-71
2022/02/10 14:30:55;;;;;;;8.50;4.25;;;;;;;13.48;45.63;102407.83;1541408;91;21659;-70
2022/02/10 14:36:02;;;;;;;9.15;5.90;;;;;;;13.40;45.73;102405.28;1529097;89;21073;-71
2022/02/10 15:46:23;;;;;;;6.60;5.10;;;;;;;11.65;50.46;102412.79;1502724;94;21171;-70
2022/02/10 15:48:53;;;;;;;5.05;4.55;;;;;;;11.64;50.63;102411.07;1508485;93;21057;-69
2022/02/10 16:18:09;;;;;;;3.55;3.08;;;;;;;11.35;52.41;102407.98;1526746;92;21102;-72
2022/02/10 16:20:35;;;;;;;4.40;3.22;;;;;;;11.36;52.39;102404.95;1606158;87;21100;-72
2022/02/10 16:23:05;;;;;;;4.97;3.33;;;;;;;11.35;52.47;102410.59;1608419;88;21126;-73
2022/02/10 16:25:34;;;;;;;4.17;3.47;;;;;;;11.36;52.51;102408.44;1612369;87;21590;-73
2022/02/10 16:28:22;;;;;;;5.53;3.60;;;;;;;11.37;52.60;102410.16;1619665;88;21056;-70
2022/02/10 16:30:38;;;;;;;3.47;2.95;;;;;;;11.38;52.52;102408.00;1565830;89;21105;-73
2022/02/10 16:33:05;;;;;;;4.97;3.65;;;;;;;11.39;52.51;102407.16;1595984;87;21579;-72
2022/02/10 16:35:32;;;;;;;3.35;2.90;;;;;;;11.40;52.61;102413.20;1593679;89;21077;-72
2022/02/10 16:37:59;;;;;;;5.25;3.15;;;;;;;11.37;52.75;102402.34;1596586;89;21093;-73
2022/02/10 16:40:25;;;;;;;12.23;6.20;;;;;;;11.37;52.85;102409.31;1590825;89;21512;-72
2022/02/10 16:42:52;;;;;;;4.78;3.90;;;;;;;11.35;52.89;102401.47;1593868;88;21077;-72
2022/02/10 16:45:18;;;;;;;4.87;3.75;;;;;;;11.34;52.97;102399.75;1604594;88;21125;-74
2022/02/10 16:47:45;;;;;;;4.65;3.80;;;;;;;11.35;52.92;102400.16;1592483;88;21114;-73
2022/02/10 16:50:13;;;;;;;4.83;3.10;;;;;;;11.36;52.89;102392.80;1591910;89;21561;-70
2022/02/10 16:52:46;;;;;;;7.80;3.55;;;;;;;11.38;52.81;102392.36;1594423;89;21087;-72
2022/02/10 16:55:22;;;;;;;5.62;3.30;;;;;;;11.41;52.71;102395.42;1622511;86;21053;-73
2022/02/10 16:57:46;;;;;;;3.50;3.00;;;;;;;11.43;52.61;102391.08;1619784;86;21669;-72
2022/02/10 17:05:31;;;;;;;3.75;2.98;;;;;;;11.51;52.18;102394.55;1576915;90;21081;-72
2022/02/10 17:19:04;;;;;;;6.35;3.27;;;;;;;11.60;51.31;102389.78;1549447;92;21514;-72
2022/02/10 17:29:11;;;;;;;4.60;2.85;;;;;;;11.70;51.26;102392.84;1553750;90;21562;-71
2022/02/10 17:32:04;;;;;;;3.87;2.85;;;;;;;11.73;51.12;102392.83;1581504;90;21066;-71
2022/02/10 17:34:25;;;;;;;3.67;2.80;;;;;;;11.75;51.04;102393.70;1572644;90;21533;-72
2022/02/10 17:36:51;;;;;;;4.78;3.37;;;;;;;11.76;50.91;102390.23;1577454;89;21044;-71
2022/02/10 17:42:20;;;;;;;3.98;3.58;;;;;;;11.81;50.43;102383.29;1555990;90;21571;-70
2022/02/10 17:52:20;;;;;;;9.58;4.75;;;;;;;11.86;49.57;102377.61;1479261;96;21074;-72
2022/02/10 17:54:46;;;;;;;13.15;5.00;;;;;;;11.86;49.40;102378.92;1483607;95;21210;-70
2022/02/10 17:57:14;;;;;;;12.85;9.33;;;;;;;11.85;49.26;102383.26;1529189;93;21091;-72
2022/02/10 17:59:41;;;;;;;9.28;5.60;;;;;;;11.85;49.16;102377.20;1557025;89;21111;-69
2022/02/10 18:02:08;;;;;;;10.50;6.58;;;;;;;11.87;49.04;102376.30;1589853;89;21636;-70
2022/02/10 18:04:34;;;;;;;7.87;4.92;;;;;;;11.89;48.89;102371.95;1593981;88;21538;-70
2022/02/10 18:07:03;;;;;;;6.83;4.65;;;;;;;11.90;48.76;102372.40;1597414;89;21701;-69
2022/02/10 18:14:57;;;;;;;6.08;3.55;;;;;;;11.95;48.44;102369.33;1583153;90;21079;-71
2022/02/10 18:17:36;;;;;;;6.20;4.10;;;;;;;11.94;48.45;102369.34;1565712;90;21084;-69
2022/02/10 18:22:46;;;;;;;6.55;3.65;;;;;;;11.96;48.34;102374.12;1601627;89;21652;-70
2022/02/10 18:27:45;;;;;;;3.70;3.17;;;;;;;11.91;48.86;102367.59;1588611;88;21078;-71
2022/02/10 19:01:31;;;;;;;6.28;3.95;;;;;;;11.93;48.56;102343.68;1617163;87;21068;-71
2022/02/10 19:07:49;;;;;;;4.28;3.00;;;;;;;11.75;49.88;102357.19;1617728;86;21048;-70
2022/02/10 19:10:10;;;;;;;4.72;3.20;;;;;;;11.61;50.51;102351.09;1600324;87;21101;-72
2022/02/10 19:12:45;;;;;;;9.40;5.85;;;;;;;11.64;50.79;102357.62;1604481;86;21050;-72
2022/02/10 19:15:20;;;;;;;8.25;4.47;;;;;;;11.60;51.02;102355.45;1612610;87;21062;-72
2022/02/10 19:17:45;;;;;;;6.47;4.00;;;;;;;11.61;51.16;102356.30;1615778;87;21101;-72
2022/02/10 19:20:12;;;;;;;5.30;3.08;;;;;;;11.61;51.41;102362.81;1659715;85;21085;-72
2022/02/10 19:22:41;;;;;;;4.45;2.90;;;;;;;11.59;51.60;102358.04;1666668;85;21596;-72
2022/02/10 19:25:08;;;;;;;4.30;2.80;;;;;;;11.58;51.69;102359.77;1668520;85;21077;-73
2022/02/10 19:27:37;;;;;;;4.20;3.05;;;;;;;11.58;51.81;102358.92;1671154;85;21109;-72
2022/02/10 19:30:08;;;;;;;5.72;3.42;;;;;;;11.56;51.70;102356.75;1672071;85;21054;-71
2022/02/10 19:32:42;;;;;;;5.45;3.75;;;;;;;11.55;51.51;102362.82;1670241;85;21092;-71
2022/02/10 19:35:08;;;;;;;6.58;3.85;;;;;;;11.53;51.33;102361.53;1677757;85;21030;-71
2022/02/10 19:37:35;;;;;;;5.20;3.83;;;;;;;11.51;50.78;102352.84;1676008;84;21024;-69
2022/02/10 19:40:04;;;;;;;3.98;3.50;;;;;;;11.51;50.12;102357.18;1670168;85;21029;-69
2022/02/10 19:42:34;;;;;;;4.85;3.72;;;;;;;11.48;49.52;102357.61;1677576;85;21038;-69
2022/02/10 19:45:03;;;;;;;5.37;3.80;;;;;;;11.48;49.06;102360.22;1680711;85;21564;-69
2022/02/10 19:47:31;;;;;;;4.37;3.58;;;;;;;11.48;48.69;102355.44;1669133;85;21073;-70
2022/02/10 19:49:58;;;;;;;4.62;3.47;;;;;;;11.48;48.42;102358.91;1657293;85;21053;-71
2022/02/10 19:52:25;;;;;;;4.25;3.85;;;;;;;11.46;48.13;102355.44;1641380;86;21077;-70
2022/02/10 19:54:56;;;;;;;4.40;3.67;;;;;;;11.46;47.92;102351.95;1631372;87;21109;-70
2022/02/10 19:57:23;;;;;;;5.00;4.03;;;;;;;11.44;47.77;102348.48;1674202;85;21074;-69
2022/02/10 19:59:49;;;;;;;5.60;4.85;;;;;;;11.43;47.61;102351.55;1636051;86;21038;-72
2022/02/10 20:02:20;;;;;;;6.50;4.55;;;;;;;11.41;47.51;102350.68;1673963;85;21064;-71
2022/02/10 20:04:44;;;;;;;5.90;4.87;;;;;;;11.39;47.46;102348.52;1667085;85;21073;-72
2022/02/10 20:07:12;;;;;;;6.03;4.40;;;;;;;11.38;47.44;102344.15;1654442;85;21062;-69
2022/02/10 20:09:39;;;;;;;7.03;4.58;;;;;;;11.32;47.58;102349.36;1672928;85;21003;-70
2022/02/10 20:12:06;;;;;;;6.12;4.62;;;;;;;11.31;47.61;102345.00;1673243;85;21041;-70
2022/02/10 20:14:32;;;;;;;6.28;4.10;;;;;;;11.31;47.85;102347.61;1676064;85;21606;-70
2022/02/10 20:16:59;;;;;;;7.05;3.65;;;;;;;11.29;48.28;102353.72;1670934;85;21078;-71
2022/02/10 20:19:25;;;;;;;5.33;3.02;;;;;;;11.27;49.02;102356.30;1680473;85;21023;-71
2022/02/10 20:21:52;;;;;;;5.15;3.15;;;;;;;11.26;49.91;102350.66;1678023;85;21057;-71
2022/02/10 20:24:18;;;;;;;4.92;3.05;;;;;;;11.21;50.39;102356.75;1680029;85;21050;-72
2022/02/10 20:26:45;;;;;;;5.12;3.50;;;;;;;11.12;50.94;102343.27;1680098;85;21062;-72
2022/02/10 20:29:12;;;;;;;4.22;2.90;;;;;;;11.05;51.41;102357.14;1676743;85;21562;-72
2022/02/10 20:31:41;;;;;;;3.92;3.05;;;;;;;10.99;51.77;102355.83;1676270;85;21037;-72
2022/02/10 20:34:11;;;;;;;4.85;3.20;;;;;;;10.93;52.22;102355.82;1626450;87;21064;-71
2022/02/10 20:36:37;;;;;;;5.10;3.33;;;;;;;10.88;52.52;102355.38;1670306;85;21040;-71
2022/02/10 20:39:05;;;;;;;6.05;3.50;;;;;;;10.83;52.88;102359.27;1665997;85;21026;-71
2022/02/10 20:41:34;;;;;;;5.87;4.33;;;;;;;10.80;53.11;102360.55;1669275;85;21076;-71
2022/02/10 20:44:01;;;;;;;8.70;6.03;;;;;;;10.77;53.27;102357.08;1622754;87;21037;-73
2022/02/10 20:46:30;;;;;;;7.70;5.10;;;;;;;10.72;53.50;102354.45;1678976;85;21054;-72
2022/02/10 20:48:57;;;;;;;7.45;5.75;;;;;;;10.70;53.65;102354.00;1640462;85;21616;-72
2022/02/10 20:51:24;;;;;;;7.85;6.67;;;;;;;10.68;53.78;102354.01;1616501;87;21061;-72
2022/02/10 20:53:51;;;;;;;14.50;10.13;;;;;;;10.66;53.87;102354.44;1622584;86;21045;-72
2022/02/10 20:56:20;;;;;;;15.00;9.40;;;;;;;10.63;53.87;102359.20;1668781;85;21544;-72
2022/02/10 21:01:17;;;;;;;13.50;10.83;;;;;;;10.60;53.85;102354.42;1614190;88;21037;-72
2022/02/10 21:03:44;;;;;;;16.75;12.20;;;;;;;10.60;53.80;102353.12;1583853;89;21137;-73
2022/02/10 21:11:10;;;;;;;12.25;8.80;;;;;;;10.63;53.24;102340.12;1547198;91;21580;-71
2022/02/10 21:13:38;;;;;;;9.35;8.33;;;;;;;10.65;52.93;102341.00;1539145;91;21097;-72
2022/02/10 21:16:05;;;;;;;9.80;8.33;;;;;;;10.65;52.80;102333.19;1544115;92;21078;-72
2022/02/10 21:18:40;;;;;;;10.65;8.03;;;;;;;10.65;52.58;102331.89;1544919;91;21688;-71
2022/02/10 21:21:11;;;;;;;13.95;7.67;;;;;;;10.65;52.50;102331.89;1543388;91;21118;-70
2022/02/10 21:26:05;;;;;;;7.37;6.47;;;;;;;10.66;52.24;102327.10;1524268;93;21235;-71
2022/02/10 21:28:36;;;;;;;10.28;7.55;;;;;;;10.66;52.04;102329.70;1556633;91;21098;-71
2022/02/10 21:31:04;;;;;;;8.53;6.90;;;;;;;10.66;51.89;102324.50;1557131;91;21057;-72
2022/02/10 21:38:48;;;;;;;10.70;7.20;;;;;;;10.68;51.37;102310.17;1519914;93;21162;-71
2022/02/10 21:57:29;;;;;;;8.63;6.58;;;;;;;10.59;51.96;102303.24;1524570;93;21119;-71
2022/02/10 22:23:22;;;;;;;7.42;4.67;;;;;;;10.39;53.95;102294.48;1551273;91;21043;-72
2022/02/10 22:25:51;;;;;;;7.58;4.40;;;;;;;10.35;54.08;102288.83;1524555;93;21164;-72
2022/02/10 22:28:37;;;;;;;10.13;5.15;;;;;;;10.34;54.16;102287.11;1568467;90;21102;-72
2022/02/10 22:35:54;;;;;;;6.67;3.55;;;;;;;10.25;54.51;102275.35;1560985;89;21656;-72
2022/02/10 22:38:22;;;;;;;7.12;3.72;;;;;;;10.23;54.58;102272.75;1592487;89;22198;-73
2022/02/10 22:41:01;;;;;;;10.65;4.20;;;;;;;10.21;54.71;102267.09;1562161;90;21181;-72
2022/02/10 22:43:24;;;;;;;5.03;3.35;;;;;;;10.17;54.98;102253.64;1551827;91;21095;-71
2022/02/10 22:45:50;;;;;;;9.00;4.83;;;;;;;10.15;55.12;102252.77;1595826;89;21104;-72
2022/02/10 22:48:17;;;;;;;8.25;3.77;;;;;;;10.14;55.34;102251.89;1597089;89;21062;-72
2022/02/10 22:50:43;;;;;;;5.00;3.17;;;;;;;10.12;55.44;102247.13;1598650;88;21603;-72
2022/02/10 22:53:09;;;;;;;6.22;3.95;;;;;;;10.12;55.46;102248.88;1630151;88;21556;-71
2022/02/10 22:55:38;;;;;;;7.53;4.08;;;;;;;10.11;55.62;102253.63;1634395;88;21155;-72
2022/02/10 22:58:05;;;;;;;6.33;4.42;;;;;;;10.10;55.58;102251.45;1635757;87;21076;-72
2022/02/10 23:00:34;;;;;;;6.60;3.90;;;;;;;10.11;55.57;102249.72;1635088;88;21083;-72
2022/02/10 23:03:01;;;;;;;9.55;3.87;;;;;;;10.11;55.57;102245.83;1635809;88;21107;-73
2022/02/10 23:05:27;;;;;;;9.00;4.20;;;;;;;10.11;55.59;102241.92;1634465;87;21048;-71
2022/02/10 23:07:58;;;;;;;7.00;3.58;;;;;;;10.08;55.83;102240.14;1634159;88;21033;-72
2022/02/10 23:13:21;;;;;;;6.47;3.25;;;;;;;10.09;55.85;102228.01;1622179;88;21223;-72
2022/02/10 23:15:47;;;;;;;7.45;3.20;;;;;;;10.09;55.85;102231.91;1618526;88;21081;-73
2022/02/10 23:18:17;;;;;;;8.58;3.30;;;;;;;10.08;55.86;102227.56;1623351;87;21547;-72
2022/02/10 23:21:18;;;;;;;8.13;4.20;;;;;;;10.05;55.98;102217.16;1625925;88;21062;-72
2022/02/10 23:23:48;;;;;;;8.90;4.67;;;;;;;10.05;56.00;102227.56;1618236;87;21061;-72
2022/02/10 23:26:17;;;;;;;7.15;2.80;;;;;;;10.06;56.04;102224.08;1593382;87;21629;-72
2022/02/10 23:28:51;;;;;;;6.20;3.22;;;;;;;10.04;56.01;102220.61;1583200;90;21077;-72
2022/02/10 23:31:20;;;;;;;6.60;3.35;;;;;;;10.02;56.13;102219.73;1586183;89;21133;-72
2022/02/10 23:44:17;;;;;;;5.85;3.47;;;;;;;9.97;56.23;102209.77;1492983;96;21162;-71
2022/02/10 23:46:43;;;;;;;7.33;3.23;;;;;;;9.98;56.27;102209.77;1484652;95;21123;-72
2022/02/10 23:49:13;;;;;;;5.35;3.20;;;;;;;9.98;56.23;102210.19;1485543;95;21705;-72
2022/02/10 23:54:07;;;;;;;8.78;4.10;;;;;;;9.99;56.12;102204.14;1434206;100;21626;-72
2022/02/10 23:56:42;;;;;;;14.53;4.12;;;;;;;10.01;56.04;102198.52;1434286;100;21137;-71
